Time;durP1;ratioP1;P1;durP2;ratioP2;P2;SDS_P1;SDS_P2;PMS_P1;PMS_P2;Temp;Humidity;BMP_temperature;BMP_pressure;BME280_temperature;BME280_humidity;BME280_pressure;Samples;Min_cycle;Max_cycle;Signal;HPM_P1;HPM_P2
2021/06/07 00:01:47;;;;;;;5.20;4.70;;;;;;;17.51;100.00;96667.81;5073451;28;20059;-63
2021/06/07 00:04:16;;;;;;;7.95;4.90;;;;;;;17.33;100.00;96662.84;5072860;28;20076;-62
2021/06/07 00:06:45;;;;;;;5.82;5.22;;;;;;;17.18;100.00;96665.47;5078239;28;20086;-61
2021/06/07 00:09:16;;;;;;;5.73;5.17;;;;;;;17.28;100.00;96660.72;5077225;28;20530;-63
2021/06/07 00:11:44;;;;;;;;;;;;;;;17.33;100.00;96663.66;5080485;28;20138;-64
2021/06/07 00:14:13;;;;;;;5.55;4.90;;;;;;;17.10;100.00;96665.53;5074723;28;19955;-62
2021/06/07 00:16:41;;;;;;;5.10;4.60;;;;;;;17.22;100.00;96666.78;5079559;28;20028;-62
2021/06/07 00:19:11;;;;;;;5.93;5.25;;;;;;;17.12;100.00;96665.38;5084431;28;20071;-61
2021/06/07 00:21:39;;;;;;;6.53;5.40;;;;;;;17.02;100.00;96670.94;5082160;28;20090;-63
2021/06/07 00:24:10;;;;;;;6.68;5.10;;;;;;;17.06;100.00;96666.91;5084348;28;20060;-63
2021/06/07 00:26:38;;;;;;;;;;;;;;;17.13;100.00;96659.84;5076256;28;20068;-63
2021/06/07 00:29:07;;;;;;;5.93;5.32;;;;;;;17.17;100.00;96658.50;5082366;28;19951;-62
2021/06/07 00:31:35;;;;;;;6.22;5.63;;;;;;;17.09;100.00;96659.38;5081886;28;20052;-62
2021/06/07 00:34:04;;;;;;;6.35;5.75;;;;;;;17.16;100.00;96667.47;5080145;28;20064;-64
2021/06/07 00:36:33;;;;;;;5.60;5.10;;;;;;;17.11;100.00;96663.72;5082595;28;20465;-62
2021/06/07 00:39:03;;;;;;;6.53;5.93;;;;;;;17.29;100.00;96657.03;5080932;28;20067;-63
2021/06/07 00:41:32;;;;;;;7.93;5.70;;;;;;;17.19;100.00;96655.66;5077512;28;20125;-63
2021/06/07 00:44:05;;;;;;;6.07;5.30;;;;;;;17.29;100.00;96670.38;5082642;28;20072;-63
2021/06/07 00:46:33;;;;;;;8.00;5.50;;;;;;;17.31;100.00;96662.19;5076498;28;20463;-62
2021/06/07 00:49:01;;;;;;;6.22;5.60;;;;;;;17.56;100.00;96654.78;5073783;28;20122;-62
2021/06/07 00:51:29;;;;;;;6.20;5.60;;;;;;;17.28;100.00;96659.91;5078335;28;20072;-62
2021/06/07 00:53:57;;;;;;;6.00;5.38;;;;;;;17.37;100.00;96663.28;5074573;28;20070;-63
2021/06/07 00:56:25;;;;;;;6.18;5.57;;;;;;;17.16;100.00;96656.00;5067470;28;20076;-62
2021/06/07 00:58:55;;;;;;;5.93;5.32;;;;;;;17.19;100.00;96659.13;5081228;28;20059;-62
2021/06/07 01:01:25;;;;;;;7.20;5.73;;;;;;;17.16;100.00;96664.81;5077693;28;20086;-62
2021/06/07 01:03:56;;;;;;;6.55;5.30;;;;;;;17.12;100.00;96660.03;5079689;28;20501;-62
2021/06/07 01:06:24;;;;;;;;;;;;;;;17.18;100.00;96662.00;5077763;28;20330;-63
2021/06/07 01:08:52;;;;;;;6.28;5.13;;;;;;;17.40;100.00;96658.44;5084667;28;19947;-63
2021/06/07 01:11:21;;;;;;;5.63;5.07;;;;;;;17.37;100.00;96652.63;5078047;28;20439;-62
2021/06/07 01:13:50;;;;;;;5.30;4.80;;;;;;;17.11;100.00;96661.06;5076332;28;20060;-61
2021/06/07 01:16:21;;;;;;;8.93;6.28;;;;;;;17.12;100.00;96660.03;5077434;28;20080;-62
2021/06/07 01:18:49;;;;;;;;;;;;;;;16.96;100.00;96666.34;5076863;28;20139;-62
2021/06/07 01:21:22;;;;;;;8.65;7.30;;;;;;;16.88;100.00;96666.41;5080886;28;20363;-62
2021/06/07 01:23:53;;;;;;;10.35;7.80;;;;;;;16.77;100.00;96662.34;5075299;28;20075;-63
2021/06/07 01:26:21;;;;;;;;;;;;;;;17.11;100.00;96667.22;5077144;28;20465;-62
2021/06/07 01:28:50;;;;;;;10.10;7.22;;;;;;;16.98;100.00;96667.81;5077287;28;20382;-59
2021/06/07 01:32:01;;;;;;;9.30;7.15;;;;;;;16.97;100.00;96662.69;5076199;28;20046;-59
2021/06/07 01:34:29;;;;;;;8.20;7.35;;;;;;;16.91;100.00;96661.56;5076482;28;20068;-60
2021/06/07 01:36:58;;;;;;;8.98;7.57;;;;;;;17.05;100.00;96660.75;5086049;28;20468;-61
2021/06/07 01:39:27;;;;;;;7.82;7.05;;;;;;;17.18;100.00;96654.81;5069384;28;21311;-61
2021/06/07 01:41:56;;;;;;;7.45;6.40;;;;;;;17.17;100.00;96650.50;5079886;28;20064;-61
2021/06/07 01:44:24;;;;;;;6.35;5.75;;;;;;;17.23;100.00;96659.59;5079708;28;20213;-61
2021/06/07 01:46:52;;;;;;;7.78;7.00;;;;;;;17.17;100.00;96647.84;5077730;28;20060;-60
2021/06/07 01:49:20;;;;;;;7.38;6.53;;;;;;;17.25;100.00;96642.41;5075557;28;20074;-60
2021/06/07 01:51:48;;;;;;;7.22;5.75;;;;;;;17.12;100.00;96650.22;5083967;28;20076;-56
2021/06/07 01:54:16;;;;;;;5.90;5.30;;;;;;;17.08;100.00;96649.75;5083527;28;20036;-61
2021/06/07 01:56:45;;;;;;;6.53;5.82;;;;;;;17.20;100.00;96649.28;5082204;28;20064;-61
2021/06/07 01:59:13;;;;;;;8.15;6.88;;;;;;;16.97;100.00;96652.03;5081571;28;20452;-61
2021/06/07 02:01:41;;;;;;;8.88;8.00;;;;;;;16.71;100.00;96658.50;5084487;28;20075;-62
2021/06/07 02:04:09;;;;;;;10.90;8.73;;;;;;;16.68;100.00;96663.34;5080453;28;20083;-59
2021/06/07 02:06:39;;;;;;;9.10;8.05;;;;;;;16.93;100.00;96658.69;5086380;28;20088;-62
2021/06/07 02:09:07;;;;;;;9.20;8.10;;;;;;;17.05;100.00;96647.44;5078081;28;20083;-62
2021/06/07 02:11:35;;;;;;;8.50;7.63;;;;;;;17.08;100.00;96646.25;5081180;28;20060;-62
2021/06/07 02:14:05;;;;;;;9.20;8.30;;;;;;;16.93;100.00;96645.38;5081052;28;20078;-62
2021/06/07 02:16:36;;;;;;;8.82;7.60;;;;;;;16.96;100.00;96647.69;5086365;22;20045;-54
2021/06/07 02:19:06;;;;;;;11.05;8.80;;;;;;;16.87;100.00;96646.13;5038781;28;20076;-56
2021/06/07 02:21:35;;;;;;;9.55;8.65;;;;;;;16.87;100.00;96651.44;5044633;28;20084;-52
2021/06/07 02:24:05;;;;;;;9.05;7.88;;;;;;;16.93;100.00;96648.03;5041347;28;20067;-56
2021/06/07 02:26:34;;;;;;;11.85;9.65;;;;;;;16.71;100.00;96647.03;5046812;28;20064;-53
2021/06/07 02:29:06;;;;;;;10.80;9.68;;;;;;;16.53;100.00;96657.97;5045531;28;20476;-56
2021/06/07 02:31:36;;;;;;;12.27;9.77;;;;;;;16.69;100.00;96660.53;5038760;28;20638;-55
2021/06/07 02:34:07;;;;;;;10.43;9.43;;;;;;;16.86;100.00;96658.56;5046424;28;20077;-55
2021/06/07 02:36:37;;;;;;;9.77;8.60;;;;;;;16.75;100.00;96656.34;5042126;28;20081;-58
2021/06/07 02:39:07;;;;;;;10.73;9.63;;;;;;;16.42;100.00;96661.88;5041368;28;20065;-59
2021/06/07 02:41:36;;;;;;;;;;;;;;;16.33;100.00;96663.75;5043560;28;20091;-57
2021/06/07 02:44:07;;;;;;;10.93;9.80;;;;;;;16.32;100.00;96658.63;5042132;28;19964;-54
2021/06/07 02:46:35;;;;;;;10.75;9.65;;;;;;;16.41;100.00;96660.22;5039720;28;20072;-56
2021/06/07 02:49:05;;;;;;;11.52;10.32;;;;;;;16.64;100.00;96654.91;5038320;28;20076;-54
2021/06/07 02:51:33;;;;;;;12.40;10.60;;;;;;;16.60;100.00;96653.59;5042414;28;20084;-55
2021/06/07 02:54:02;;;;;;;13.10;11.10;;;;;;;16.64;100.00;96654.06;5039083;28;20140;-54
2021/06/07 02:56:30;;;;;;;12.48;11.02;;;;;;;16.75;100.00;96651.03;5038354;28;20064;-59
2021/06/07 03:01:35;;;;;;;13.38;11.98;;;;;;;16.75;100.00;96653.69;5020476;23;20543;-62
2021/06/07 03:04:03;;;;;;;11.60;10.50;;;;;;;16.84;100.00;96656.09;5005674;28;20077;-60
2021/06/07 03:06:31;;;;;;;11.30;9.85;;;;;;;16.95;100.00;96652.19;5007389;28;20493;-58
2021/06/07 03:08:59;;;;;;;12.88;10.55;;;;;;;16.96;100.00;96647.69;5010648;28;20065;-59
2021/06/07 03:11:27;;;;;;;11.20;10.07;;;;;;;16.98;100.00;96653.66;5006981;28;20470;-62
2021/06/07 03:13:55;;;;;;;11.57;10.38;;;;;;;16.92;100.00;96652.53;5006073;28;20073;-60
2021/06/07 03:16:23;;;;;;;12.40;10.60;;;;;;;17.02;100.00;96654.97;5007363;28;20073;-60
2021/06/07 03:18:53;;;;;;;12.18;9.60;;;;;;;16.92;100.00;96649.88;5012640;28;20073;-61
2021/06/07 03:21:20;;;;;;;14.25;9.90;;;;;;;17.07;100.00;96645.44;4997961;28;20058;-60
2021/06/07 03:23:48;;;;;;;9.80;8.77;;;;;;;16.98;100.00;96645.69;5005406;28;20069;-57
2021/06/07 03:26:16;;;;;;;10.60;9.18;;;;;;;16.90;100.00;96648.44;5006913;28;20061;-58
2021/06/07 03:28:44;;;;;;;10.43;9.05;;;;;;;16.89;100.00;96649.41;5007355;28;20069;-60
2021/06/07 03:31:13;;;;;;;10.00;9.00;;;;;;;17.01;100.00;96648.00;5005730;28;20085;-62
2021/06/07 03:33:41;;;;;;;10.18;9.15;;;;;;;16.79;100.00;96644.31;5007012;28;20079;-59
2021/06/07 03:36:11;;;;;;;8.98;8.07;;;;;;;16.97;100.00;96644.84;5008629;28;20072;-57
2021/06/07 03:38:39;;;;;;;11.93;8.50;;;;;;;17.01;100.00;96648.00;5005114;28;20465;-60
2021/06/07 03:41:08;;;;;;;9.40;8.40;;;;;;;16.87;100.00;96646.94;5006444;28;20116;-60
2021/06/07 03:43:37;;;;;;;8.38;7.47;;;;;;;16.96;100.00;96653.84;5007003;28;20064;-58
2021/06/07 03:46:06;;;;;;;8.50;7.65;;;;;;;17.10;100.00;96654.88;5002384;28;20089;-60
2021/06/07 03:48:34;;;;;;;8.43;7.50;;;;;;;17.18;100.00;96643.34;5002752;28;20076;-59
2021/06/07 03:51:02;;;;;;;10.45;8.30;;;;;;;17.13;100.00;96659.03;5004746;28;20072;-60
2021/06/07 03:53:31;;;;;;;9.07;7.57;;;;;;;17.08;100.00;96671.06;5001907;28;20081;-60
2021/06/07 03:55:59;;;;;;;9.15;7.45;;;;;;;17.04;100.00;96666.28;5001891;28;20081;-62
2021/06/07 03:58:29;;;;;;;8.10;7.22;;;;;;;17.11;100.00;96667.22;5000711;28;20504;-60
2021/06/07 04:00:57;;;;;;;7.53;6.80;;;;;;;17.27;100.00;96666.22;5003812;28;20465;-59
2021/06/07 04:03:25;;;;;;;7.70;7.00;;;;;;;17.21;100.00;96666.97;4986740;28;20062;-59
2021/06/07 04:05:53;;;;;;;9.23;6.90;;;;;;;17.28;100.00;96662.56;4987516;28;20066;-59
2021/06/07 04:08:21;;;;;;;8.55;7.20;;;;;;;17.29;100.00;96661.53;4988594;28;20077;-60
2021/06/07 04:10:50;;;;;;;7.63;6.93;;;;;;;17.43;100.00;96659.91;4987694;28;20066;-61
2021/06/07 04:13:18;;;;;;;7.60;6.90;;;;;;;17.29;100.00;96664.22;4984598;28;20097;-61
2021/06/07 04:15:46;;;;;;;7.90;7.10;;;;;;;17.48;100.00;96663.69;4990924;28;20084;-60
2021/06/07 04:18:14;;;;;;;8.27;7.45;;;;;;;17.56;100.00;96660.09;4979828;28;20073;-60
2021/06/07 04:20:42;;;;;;;7.82;7.03;;;;;;;17.60;100.00;96658.72;4981058;28;20094;-60
2021/06/07 04:23:10;;;;;;;8.18;7.38;;;;;;;17.63;100.00;96657.53;4985570;28;20298;-61
2021/06/07 04:25:38;;;;;;;9.40;7.35;;;;;;;17.78;100.00;96661.88;4983937;28;20682;-63
2021/06/07 04:28:08;;;;;;;8.45;7.65;;;;;;;17.81;100.00;96662.53;4987552;28;20081;-61
2021/06/07 04:30:36;;;;;;;8.80;7.90;;;;;;;18.05;100.00;96669.41;4986336;28;20081;-61
2021/06/07 04:33:08;;;;;;;9.23;8.25;;;;;;;18.08;100.00;96663.69;4982557;28;20069;-61
2021/06/07 04:35:36;;;;;;;8.48;7.68;;;;;;;18.18;100.00;96658.88;4988600;28;20069;-59
2021/06/07 04:38:04;;;;;;;9.32;8.43;;;;;;;18.10;100.00;96661.66;4987292;28;20073;-61
2021/06/07 04:40:35;;;;;;;10.20;8.13;;;;;;;18.22;100.00;96665.50;4984191;28;20073;-61
2021/06/07 04:43:06;;;;;;;9.07;8.20;;;;;;;18.17;100.00;96668.75;4989510;28;20089;-59
2021/06/07 04:45:37;;;;;;;8.93;8.02;;;;;;;18.18;100.00;96665.03;4987724;28;20092;-60
2021/06/07 04:48:06;;;;;;;9.18;8.27;;;;;;;18.30;100.00;96657.38;4990168;28;20062;-60
2021/06/07 04:50:35;;;;;;;8.65;7.78;;;;;;;18.58;100.00;96670.84;4987567;28;20160;-60
2021/06/07 04:53:05;;;;;;;8.45;7.65;;;;;;;18.40;100.00;96671.25;4985775;28;20521;-59
2021/06/07 04:55:36;;;;;;;8.45;7.65;;;;;;;18.30;100.00;96664.56;4986514;28;20081;-59
2021/06/07 04:58:07;;;;;;;6.80;6.20;;;;;;;18.40;100.00;96662.41;4989988;28;20085;-54
2021/06/07 05:00:37;;;;;;;7.68;6.80;;;;;;;18.32;100.00;96665.22;4987537;28;20644;-60
2021/06/07 05:03:05;;;;;;;;;;;;;;;18.25;100.00;96662.47;4980615;28;20162;-58
2021/06/07 05:05:34;;;;;;;8.82;6.43;;;;;;;18.19;100.00;96669.38;4981701;28;19975;-57
2021/06/07 05:08:03;;;;;;;8.00;6.40;;;;;;;18.30;100.00;96665.38;4984282;28;20442;-60
2021/06/07 05:10:31;;;;;;;6.95;6.32;;;;;;;18.39;100.00;96663.44;4978940;28;20070;-60
2021/06/07 05:12:59;;;;;;;6.13;5.53;;;;;;;18.77;100.00;96653.38;4983026;28;20085;-58
2021/06/07 05:15:28;;;;;;;6.32;5.60;;;;;;;19.32;100.00;96643.75;4990641;28;20101;-61
2021/06/07 05:17:57;;;;;;;7.05;5.35;;;;;;;19.23;100.00;96650.25;4986538;28;20073;-61
2021/06/07 05:20:27;;;;;;;6.10;5.50;;;;;;;19.18;100.00;96652.69;4984149;28;20518;-59
2021/06/07 05:22:57;;;;;;;6.53;5.78;;;;;;;19.56;100.00;96647.81;4984065;28;20068;-60
2021/06/07 05:25:27;;;;;;;7.07;6.35;;;;;;;19.50;100.00;96651.28;4983875;28;20070;-60
2021/06/07 05:27:57;;;;;;;6.05;5.30;;;;;;;19.29;100.00;96654.00;4987408;28;20746;-60
2021/06/07 05:30:28;;;;;;;6.72;5.57;;;;;;;19.51;100.00;96646.75;4993537;28;20495;-60
2021/06/07 05:32:58;;;;;;;6.93;5.97;;;;;;;20.11;100.00;96640.72;4987338;28;20061;-61
2021/06/07 05:35:27;;;;;;;;;;;;;;;19.86;100.00;96647.63;4990586;28;20077;-59
2021/06/07 05:37:57;;;;;;;6.35;5.15;;;;;;;19.95;100.00;96645.59;4990296;28;19952;-61
2021/06/07 05:40:26;;;;;;;20.40;6.47;;;;;;;19.89;100.00;96657.94;4989371;28;20066;-60
2021/06/07 05:42:54;;;;;;;5.90;5.30;;;;;;;20.06;100.00;96656.56;4993007;28;20078;-62
2021/06/07 05:45:23;;;;;;;5.78;5.20;;;;;;;20.35;100.00;96649.25;4990323;28;20568;-59
2021/06/07 05:47:53;;;;;;;6.13;5.15;;;;;;;20.14;100.00;96660.91;4988880;28;20069;-59
2021/06/07 05:50:22;;;;;;;;;;;;;;;19.78;100.00;96666.50;4990890;28;20073;-60
2021/06/07 05:52:50;;;;;;;6.95;5.70;;;;;;;20.04;100.00;96663.13;4990308;28;19965;-60
2021/06/07 05:55:20;;;;;;;6.15;5.60;;;;;;;19.09;100.00;96668.03;4984109;28;20085;-60
2021/06/07 05:57:50;;;;;;;6.28;5.72;;;;;;;19.31;100.00;96668.84;4996173;28;20465;-59
2021/06/07 06:00:20;;;;;;;6.13;5.63;;;;;;;19.20;100.00;96672.88;4990095;28;20074;-57
2021/06/07 06:02:48;;;;;;;6.10;5.60;;;;;;;19.80;100.00;96669.81;4984112;28;20062;-60
2021/06/07 06:05:17;;;;;;;6.40;5.80;;;;;;;19.38;100.00;96674.25;4990382;28;20062;-61
2021/06/07 06:07:47;;;;;;;6.80;6.10;;;;;;;19.52;100.00;96667.97;4975934;28;20047;-58
2021/06/07 06:10:16;;;;;;;6.28;5.75;;;;;;;19.49;100.00;96673.69;4986400;28;20093;-60
2021/06/07 06:12:45;;;;;;;6.05;5.55;;;;;;;19.57;100.00;96675.41;4991347;28;20085;-60
2021/06/07 06:15:14;;;;;;;7.00;6.40;;;;;;;19.97;100.00;96670.31;4984884;28;20510;-58
2021/06/07 06:17:44;;;;;;;7.70;6.53;;;;;;;19.86;100.00;96671.72;4984163;28;20069;-59
2021/06/07 06:20:13;;;;;;;7.63;6.93;;;;;;;20.24;100.00;96676.63;4985921;28;20097;-60
2021/06/07 06:22:41;;;;;;;8.90;8.00;;;;;;;19.87;100.00;96676.03;4985308;28;20046;-60
2021/06/07 06:25:12;;;;;;;8.60;7.80;;;;;;;19.97;100.00;96673.00;4984159;28;20097;-60
2021/06/07 06:27:40;;;;;;;8.50;7.60;;;;;;;20.70;100.00;96676.78;4994968;28;20078;-60
2021/06/07 06:30:10;;;;;;;7.30;6.60;;;;;;;20.34;100.00;96669.03;4985203;28;20535;-61
2021/06/07 06:32:39;;;;;;;7.07;6.38;;;;;;;20.41;100.00;96674.41;4989923;28;20069;-59
2021/06/07 06:35:09;;;;;;;7.28;6.60;;;;;;;20.50;100.00;96683.91;4982473;28;20541;-61
2021/06/07 06:37:38;;;;;;;6.20;5.60;;;;;;;20.60;100.00;96679.03;4986570;28;20053;-61
2021/06/07 06:40:11;;;;;;;5.35;4.90;;;;;;;20.43;100.00;96681.19;4989603;28;20074;-60
2021/06/07 06:42:39;;;;;;;5.53;5.03;;;;;;;20.69;100.00;96671.63;4985182;28;20082;-61
2021/06/07 06:45:08;;;;;;;4.82;4.43;;;;;;;21.16;100.00;96676.00;4986069;28;20084;-60
2021/06/07 06:47:36;;;;;;;4.10;3.80;;;;;;;20.95;100.00;96676.19;4986796;28;20066;-59
2021/06/07 06:50:07;;;;;;;4.78;4.18;;;;;;;21.00;100.00;96677.25;4987177;28;20089;-60
2021/06/07 06:52:35;;;;;;;;;;;;;;;21.41;100.00;96678.94;4993685;28;20070;-60
2021/06/07 06:55:03;;;;;;;7.65;4.38;;;;;;;21.10;100.00;96683.03;4985136;28;19956;-61
2021/06/07 06:57:33;;;;;;;4.30;3.90;;;;;;;20.81;100.00;96686.06;4987231;28;20081;-58
2021/06/07 07:00:01;;;;;;;6.75;4.40;;;;;;;21.31;100.00;96683.88;4979208;28;20077;-59
2021/06/07 07:02:31;;;;;;;4.65;4.25;;;;;;;21.45;100.00;96682.03;4988961;28;20074;-60
2021/06/07 07:04:59;;;;;;;5.00;4.50;;;;;;;20.91;100.00;96683.00;4984685;28;20062;-61
2021/06/07 07:07:27;;;;;;;4.38;3.97;;;;;;;20.59;100.00;96688.09;4988402;28;20070;-60
2021/06/07 07:09:55;;;;;;;4.30;3.88;;;;;;;21.28;100.00;96686.97;4992391;28;20153;-61
2021/06/07 07:12:26;;;;;;;4.03;3.72;;;;;;;21.60;100.00;96684.47;4984018;28;20548;-61
2021/06/07 07:14:55;;;;;;;4.18;3.78;;;;;;;21.75;100.00;96685.09;4989150;28;20081;-62
2021/06/07 07:17:23;;;;;;;4.25;3.80;;;;;;;21.59;100.00;96680.16;4983979;28;20069;-61
2021/06/07 07:19:52;;;;;;;4.38;3.97;;;;;;;22.19;100.00;96687.03;4990957;28;20070;-60
2021/06/07 07:22:20;;;;;;;4.82;4.13;;;;;;;22.81;100.00;96679.28;4982742;28;20085;-61
2021/06/07 07:24:49;;;;;;;4.20;3.90;;;;;;;22.91;100.00;96676.13;4990946;28;20089;-62
2021/06/07 07:27:19;;;;;;;3.22;2.92;;;;;;;22.04;100.00;96686.44;4984914;28;20078;-61
2021/06/07 07:29:48;;;;;;;3.50;3.20;;;;;;;22.36;100.00;96687.38;4987472;28;20076;-61
2021/06/07 07:32:17;;;;;;;3.20;2.90;;;;;;;23.17;100.00;96677.84;4980605;28;20394;-61
2021/06/07 07:34:48;;;;;;;2.97;2.70;;;;;;;22.51;100.00;96681.75;4990150;28;20065;-61
2021/06/07 07:37:16;;;;;;;3.10;2.80;;;;;;;23.11;100.00;96679.53;4988877;28;20153;-61
2021/06/07 07:39:44;;;;;;;3.65;3.35;;;;;;;23.46;100.00;96685.25;4990245;28;20123;-61
2021/06/07 07:42:13;;;;;;;3.90;3.55;;;;;;;23.92;100.00;96688.59;4984491;28;20069;-61
2021/06/07 07:44:41;;;;;;;3.33;3.03;;;;;;;22.91;100.00;96684.19;4986290;28;20065;-61
2021/06/07 07:47:09;;;;;;;2.90;2.70;;;;;;;23.23;100.00;96685.06;4983652;28;20077;-61
2021/06/07 07:49:39;;;;;;;3.08;2.80;;;;;;;22.78;100.00;96681.59;4984281;28;20460;-61
2021/06/07 07:52:08;;;;;;;3.25;2.95;;;;;;;22.80;100.00;96684.91;4983731;28;20066;-60
2021/06/07 07:54:38;;;;;;;4.07;3.40;;;;;;;23.73;100.00;96689.63;4992746;28;20100;-61
2021/06/07 07:57:11;;;;;;;2.67;2.47;;;;;;;24.04;100.00;96685.97;4981000;28;20073;-61
2021/06/07 07:59:39;;;;;;;2.35;2.15;;;;;;;24.30;100.00;96685.69;4988555;28;20179;-60
2021/06/07 08:02:07;;;;;;;3.20;2.40;;;;;;;23.91;100.00;96685.06;4991228;28;20065;-61
2021/06/07 08:04:35;;;;;;;2.40;2.20;;;;;;;22.73;100.00;96688.44;4986715;28;20065;-61
2021/06/07 08:07:05;;;;;;;2.70;2.50;;;;;;;23.59;100.00;96691.56;4984950;28;20088;-61
2021/06/07 08:09:37;;;;;;;2.60;2.40;;;;;;;23.43;100.00;96688.41;4987859;28;20074;-61
2021/06/07 08:12:06;;;;;;;3.60;2.40;;;;;;;23.78;100.00;96685.22;4968646;28;20070;-61
2021/06/07 08:14:34;;;;;;;3.08;2.78;;;;;;;23.63;100.00;96682.00;4984798;28;20525;-61
2021/06/07 08:17:03;;;;;;;2.60;2.40;;;;;;;23.71;100.00;96683.63;4989731;28;20073;-60
2021/06/07 08:19:31;;;;;;;2.92;2.70;;;;;;;23.97;100.00;96685.22;4983112;28;20070;-61
2021/06/07 08:21:59;;;;;;;3.20;2.88;;;;;;;23.14;100.00;96680.97;4990773;28;20450;-55
2021/06/07 08:24:29;;;;;;;2.70;2.50;;;;;;;23.16;100.00;96685.09;4985651;28;20081;-61
2021/06/07 08:26:57;;;;;;;2.40;2.20;;;;;;;23.13;100.00;96687.41;4985749;28;20058;-61
2021/06/07 08:29:25;;;;;;;3.83;2.10;;;;;;;22.57;100.00;96685.44;4989533;28;20070;-61
2021/06/07 08:31:53;;;;;;;2.42;2.22;;;;;;;22.57;100.00;96685.44;4987986;28;20069;-60
2021/06/07 08:34:21;;;;;;;2.08;1.88;;;;;;;23.44;100.00;96684.66;4971607;28;20455;-59
2021/06/07 08:36:49;;;;;;;2.00;1.75;;;;;;;23.77;100.00;96680.03;4983914;28;20097;-60
2021/06/07 08:39:17;;;;;;;2.40;2.20;;;;;;;23.92;100.00;96677.81;4978908;28;20045;-60
2021/06/07 08:41:47;;;;;;;2.30;2.10;;;;;;;23.61;100.00;96684.13;4986129;28;20069;-61
2021/06/07 08:44:24;;;;;;;1.95;1.85;;;;;;;23.44;100.00;96684.66;4986906;28;20062;-61
2021/06/07 08:46:52;;;;;;;3.80;2.38;;;;;;;23.20;100.00;96686.31;4988043;28;20057;-61
2021/06/07 08:49:21;;;;;;;3.63;2.30;;;;;;;23.61;100.00;96684.13;4982208;28;20455;-61
2021/06/07 08:51:49;;;;;;;3.63;2.33;;;;;;;23.95;100.00;96685.47;4991629;28;20093;-61
2021/06/07 08:54:51;;;;;;;2.60;2.40;;;;;;;24.42;100.00;96687.63;4983729;28;20057;-61
2021/06/07 08:57:20;;;;;;;2.70;2.50;;;;;;;24.69;100.00;96685.41;4986223;28;20092;-61
2021/06/07 08:59:48;;;;;;;2.70;2.50;;;;;;;25.09;100.00;96681.09;4983956;28;20060;-61
2021/06/07 09:02:16;;;;;;;3.78;2.70;;;;;;;25.20;99.49;96684.91;4992457;28;20058;-61
2021/06/07 09:04:48;;;;;;;2.92;2.60;;;;;;;25.22;93.43;96682.78;4982466;28;20065;-60
2021/06/07 09:07:17;;;;;;;2.97;2.70;;;;;;;24.92;95.36;96685.50;4983861;28;20082;-61
2021/06/07 09:10:04;;;;;;;2.72;2.53;;;;;;;24.47;96.54;96690.50;4989344;28;20078;-61
2021/06/07 09:12:34;;;;;;;2.92;2.60;;;;;;;25.19;94.49;96688.66;4981472;28;20510;-61
2021/06/07 09:15:04;;;;;;;3.45;2.50;;;;;;;24.61;100.00;96697.34;4981473;28;20051;-61
2021/06/07 09:17:32;;;;;;;3.05;2.65;;;;;;;24.10;100.00;96688.59;4987144;28;20062;-61
2021/06/07 09:20:12;;;;;;;2.65;2.45;;;;;;;24.72;100.00;96684.97;4984898;28;20073;-61
2021/06/07 09:22:40;;;;;;;2.90;2.20;;;;;;;24.90;100.00;96693.00;4982879;28;20062;-61
2021/06/07 09:25:10;;;;;;;3.33;2.50;;;;;;;24.95;100.00;96685.06;4987589;28;20649;-60
2021/06/07 09:27:40;;;;;;;5.13;3.30;;;;;;;24.15;100.00;96688.72;4984163;28;20042;-61
2021/06/07 09:30:24;;;;;;;3.60;3.30;;;;;;;23.45;100.00;96689.00;4983490;28;20070;-61
2021/06/07 09:33:33;;;;;;;2.60;2.38;;;;;;;24.11;100.00;96681.34;4969887;28;20054;-61
2021/06/07 09:36:18;;;;;;;6.53;3.20;;;;;;;24.71;100.00;96675.19;4962450;28;20074;-62
2021/06/07 09:39:09;;;;;;;2.80;2.60;;;;;;;25.09;94.92;96683.78;4972032;28;20435;-59
2021/06/07 09:41:53;;;;;;;2.47;2.28;;;;;;;24.77;99.28;96682.38;4975683;28;20062;-59
2021/06/07 09:44:30;;;;;;;4.32;2.60;;;;;;;25.99;87.23;96680.03;4987998;28;20073;-61
2021/06/07 09:47:13;;;;;;;4.75;3.50;;;;;;;24.13;100.00;96684.63;4982358;28;20449;-61
2021/06/07 09:49:43;;;;;;;3.22;2.92;;;;;;;25.60;94.55;96680.72;4982845;28;20573;-59
2021/06/07 09:52:17;;;;;;;3.13;2.67;;;;;;;24.70;98.34;96687.88;4986617;28;20080;-61
2021/06/07 09:54:58;;;;;;;2.50;2.30;;;;;;;24.85;95.21;96676.69;4989028;28;20090;-60
2021/06/07 09:57:43;;;;;;;2.53;2.10;;;;;;;25.67;92.54;96678.72;4983579;28;20565;-59
2021/06/07 10:00:32;;;;;;;5.22;2.55;;;;;;;25.52;91.34;96676.47;4967766;28;20058;-60
2021/06/07 10:03:14;;;;;;;3.70;2.58;;;;;;;24.84;96.79;96669.63;4983421;28;20078;-61
2021/06/07 10:05:42;;;;;;;2.78;2.45;;;;;;;25.13;91.37;96678.78;4980528;28;20081;-61
2021/06/07 10:08:10;;;;;;;2.83;2.42;;;;;;;25.60;93.99;96672.59;4986944;28;20510;-61
2021/06/07 10:10:38;;;;;;;2.90;2.70;;;;;;;25.45;94.13;96678.47;4986237;28;20550;-61
2021/06/07 10:13:08;;;;;;;2.75;2.55;;;;;;;25.47;89.27;96679.06;4983722;28;20088;-61
2021/06/07 10:15:39;;;;;;;4.85;2.30;;;;;;;26.15;83.05;96675.78;4989401;28;20066;-61
2021/06/07 10:18:09;;;;;;;2.45;2.25;;;;;;;26.76;83.52;96668.06;4987702;28;20132;-60
2021/06/07 10:20:48;;;;;;;2.40;2.20;;;;;;;26.13;85.13;96672.50;4997052;28;20073;-61
2021/06/07 10:23:18;;;;;;;2.40;2.10;;;;;;;26.50;77.91;96670.31;4986829;28;20066;-61
2021/06/07 10:25:47;;;;;;;2.67;2.47;;;;;;;27.23;71.58;96669.75;4988651;28;20462;-60
2021/06/07 10:28:16;;;;;;;3.30;3.00;;;;;;;26.58;86.22;96674.50;4986066;28;20073;-61
2021/06/07 10:30:46;;;;;;;3.45;3.15;;;;;;;25.40;88.30;96676.47;4987971;28;20182;-62
2021/06/07 10:33:33;;;;;;;3.10;2.80;;;;;;;24.70;85.04;96677.09;4981197;28;20077;-61
2021/06/07 10:36:33;;;;;;;4.68;3.72;;;;;;;24.67;92.44;96677.53;4987098;28;20074;-60
2021/06/07 10:39:25;;;;;;;3.50;3.20;;;;;;;25.61;93.89;96671.56;4914314;29;20527;-61
2021/06/07 10:42:19;;;;;;;4.47;4.07;;;;;;;25.65;88.11;96678.97;4984330;28;20069;-59
2021/06/07 10:44:51;;;;;;;4.40;4.00;;;;;;;26.33;79.92;96674.78;4989410;28;20081;-60
2021/06/07 10:47:22;;;;;;;6.72;5.00;;;;;;;26.47;85.29;96675.38;4991767;28;20108;-60
2021/06/07 10:49:56;;;;;;;4.78;4.38;;;;;;;26.35;80.83;96672.66;4984498;28;20726;-59
2021/06/07 10:52:25;;;;;;;4.30;3.97;;;;;;;26.33;84.62;96668.56;4984296;28;20074;-61
2021/06/07 10:54:58;;;;;;;4.70;3.80;;;;;;;25.74;89.93;96677.56;4990100;28;20097;-61
2021/06/07 10:57:49;;;;;;;4.30;3.90;;;;;;;26.19;80.67;96679.66;4984333;28;20085;-61
2021/06/07 11:00:22;;;;;;;6.88;6.28;;;;;;;25.63;86.42;96680.25;4983843;28;20066;-60
2021/06/07 11:02:54;;;;;;;5.38;4.88;;;;;;;25.90;84.18;96675.22;4991153;28;20065;-59
2021/06/07 11:05:24;;;;;;;5.20;4.70;;;;;;;25.32;87.98;96677.63;4985370;28;20074;-61
2021/06/07 11:07:59;;;;;;;;;;;;;;;26.51;76.97;96676.53;4992801;28;20061;-61
2021/06/07 11:10:29;;;;;;;4.68;4.28;;;;;;;25.80;88.37;96673.09;4983754;28;19972;-63
2021/06/07 11:12:59;;;;;;;4.88;4.47;;;;;;;25.34;77.56;96672.00;4987628;28;20082;-59
2021/06/07 11:15:29;;;;;;;5.10;4.60;;;;;;;26.06;72.38;96665.56;4983991;28;22895;-60
2021/06/07 11:18:34;;;;;;;4.70;4.30;;;;;;;25.79;80.85;96666.88;4987072;28;20544;-60
2021/06/07 11:21:27;;;;;;;4.60;4.20;;;;;;;26.37;79.22;96667.03;4984824;28;20490;-59
2021/06/07 11:23:56;;;;;;;5.50;5.00;;;;;;;25.57;82.99;96663.94;4983719;28;20070;-60
2021/06/07 11:26:35;;;;;;;5.43;4.97;;;;;;;25.07;82.27;96663.47;4985656;28;20577;-60
2021/06/07 11:29:08;;;;;;;5.93;4.32;;;;;;;25.85;79.82;96661.59;4984877;28;20066;-61
2021/06/07 11:31:41;;;;;;;5.70;5.00;;;;;;;25.35;85.38;96657.44;4978088;28;20544;-60
2021/06/07 11:34:11;;;;;;;5.90;5.30;;;;;;;25.67;88.65;96649.84;4980291;28;20082;-60
2021/06/07 11:36:42;;;;;;;5.25;4.78;;;;;;;26.61;85.30;96646.97;4985957;28;20089;-60
2021/06/07 11:39:30;;;;;;;7.10;6.50;;;;;;;25.63;87.46;96647.81;4982064;28;20533;-61
2021/06/07 11:42:03;;;;;;;5.32;4.82;;;;;;;25.46;83.37;96645.81;4983664;28;20102;-62
2021/06/07 11:44:47;;;;;;;5.72;5.20;;;;;;;26.56;79.73;96633.34;4982796;28;20081;-61
2021/06/07 11:47:16;;;;;;;5.57;4.97;;;;;;;27.02;64.51;96636.06;4981453;28;20173;-58
2021/06/07 11:50:09;;;;;;;8.32;5.30;;;;;;;27.61;61.92;96631.06;4989500;28;20070;-61